createdAt,value
2019-02-26T00:00:54.026Z,42.48
2019-02-26T00:03:23.906Z,42.83
2019-02-26T00:05:51.797Z,43.33
2019-02-26T00:08:19.407Z,42.43
2019-02-26T00:10:44.608Z,38.92
2019-02-26T00:13:10.963Z,44.40
2019-02-26T00:15:38.571Z,43.33
2019-02-26T00:18:07.447Z,44.63
2019-02-26T00:20:34.337Z,41.98
2019-02-26T00:23:02.117Z,47.33
2019-02-26T00:25:29.479Z,43.92
2019-02-26T00:27:56.338Z,39.90
2019-02-26T00:30:23.791Z,42.80
2019-02-26T00:32:50.159Z,41.60
2019-02-26T00:35:19.095Z,47.45
2019-02-26T00:37:46.479Z,42.50
2019-02-26T00:40:14.603Z,47.25
2019-02-26T00:42:41.003Z,43.68
2019-02-26T00:45:11.549Z,44.93
2019-02-26T00:47:38.892Z,43.30
2019-02-26T00:50:12.018Z,43.95
2019-02-26T00:52:39.418Z,45.55
2019-02-26T00:55:07.187Z,46.50
2019-02-26T00:57:35.761Z,40.00
2019-02-26T01:00:03.419Z,42.20
2019-02-26T01:02:30.218Z,43.25
2019-02-26T01:04:56.456Z,43.95
2019-02-26T01:07:23.863Z,46.37
2019-02-26T01:09:52.465Z,45.67
2019-02-26T01:12:19.069Z,45.03
2019-02-26T01:14:46.351Z,39.63
2019-02-26T01:17:14.840Z,43.63
2019-02-26T01:19:43.094Z,43.13
2019-02-26T01:22:09.444Z,39.73
2019-02-26T01:24:35.699Z,40.10
2019-02-26T01:27:01.978Z,42.10
2019-02-26T01:29:29.937Z,36.58
2019-02-26T01:31:56.372Z,43.05
2019-02-26T01:34:22.704Z,43.98
2019-02-26T01:36:49.595Z,43.75
2019-02-26T01:39:16.350Z,41.80
2019-02-26T01:41:46.057Z,43.35
2019-02-26T01:44:12.535Z,47.38
2019-02-26T01:46:41.056Z,46.90
2019-02-26T01:49:07.147Z,44.95
2019-02-26T01:51:33.510Z,44.90
2019-02-26T01:53:59.746Z,45.75
2019-02-26T01:56:26.072Z,43.63
2019-02-26T01:58:56.597Z,44.23
2019-02-26T02:01:22.009Z,41.73
2019-02-26T02:03:49.150Z,42.00
2019-02-26T02:06:18.182Z,44.00
2019-02-26T02:08:45.799Z,47.50
2019-02-26T02:11:12.685Z,47.62
2019-02-26T02:13:41.242Z,41.75
2019-02-26T02:16:08.908Z,44.08
2019-02-26T02:18:35.289Z,48.30
2019-02-26T02:21:01.652Z,44.65
2019-02-26T02:23:28.570Z,46.02
2019-02-26T02:25:59.727Z,46.53
2019-02-26T02:28:26.211Z,44.23
2019-02-26T02:30:52.405Z,45.88
2019-02-26T02:33:23.576Z,46.65
2019-02-26T02:35:46.807Z,49.63
2019-02-26T02:38:13.121Z,49.25
2019-02-26T02:40:40.221Z,47.08
2019-02-26T02:43:09.744Z,47.40
2019-02-26T02:45:35.657Z,49.18
2019-02-26T02:48:03.243Z,46.48
2019-02-26T02:50:30.197Z,48.33
2019-02-26T02:52:59.057Z,46.68
2019-02-26T02:55:24.816Z,45.08
2019-02-26T02:57:54.600Z,42.88
2019-02-26T03:00:21.250Z,47.08
2019-02-26T03:02:49.986Z,46.05
2019-02-26T03:05:15.343Z,47.05
2019-02-26T03:07:42.363Z,49.42
2019-02-26T03:10:12.072Z,45.00
2019-02-26T03:12:38.419Z,48.30
2019-02-26T03:15:10.031Z,53.08
2019-02-26T03:17:36.612Z,54.10
2019-02-26T03:20:07.680Z,54.67
2019-02-26T03:22:36.347Z,55.38
2019-02-26T03:25:03.158Z,53.08
2019-02-26T03:27:31.421Z,49.20
2019-02-26T03:29:59.110Z,49.20
2019-02-26T03:32:25.554Z,47.10
2019-02-26T03:34:51.788Z,50.80
2019-02-26T03:37:18.178Z,49.08
2019-02-26T03:39:44.453Z,50.40
2019-02-26T03:42:13.448Z,47.08
2019-02-26T03:44:38.819Z,49.15
2019-02-26T03:47:05.101Z,49.93
2019-02-26T03:49:31.380Z,47.48
2019-02-26T03:52:00.318Z,50.80
2019-02-26T03:54:26.609Z,53.63
2019-02-26T03:56:52.921Z,54.10
2019-02-26T03:59:19.128Z,58.15
2019-02-26T04:01:47.812Z,59.10
2019-02-26T04:04:14.070Z,56.02
2019-02-26T04:06:41.150Z,51.90
2019-02-26T04:09:09.125Z,56.95
2019-02-26T04:11:36.348Z,53.90
2019-02-26T04:14:02.722Z,56.92
2019-02-26T04:16:29.877Z,52.45
2019-02-26T04:18:57.087Z,56.18
2019-02-26T04:21:24.409Z,57.15
2019-02-26T04:23:50.643Z,55.52
2019-02-26T04:26:35.085Z,53.02
2019-02-26T04:29:13.404Z,54.03
2019-02-26T04:32:11.864Z,56.65
2019-02-26T04:34:41.343Z,52.60
2019-02-26T04:37:14.279Z,55.95
2019-02-26T04:40:01.462Z,51.60
2019-02-26T04:42:38.377Z,54.20
2019-02-26T04:45:18.265Z,51.37
2019-02-26T04:47:52.411Z,53.25
2019-02-26T04:50:23.002Z,52.93
2019-02-26T04:52:46.751Z,51.70
2019-02-26T04:55:13.053Z,46.70
2019-02-26T04:57:42.100Z,52.75
2019-02-26T05:00:10.619Z,54.48
2019-02-26T05:02:36.204Z,52.17
2019-02-26T05:05:02.539Z,51.15
2019-02-26T05:07:28.803Z,54.35
2019-02-26T05:09:56.903Z,53.38
2019-02-26T05:12:25.175Z,56.42
2019-02-26T05:14:51.415Z,53.55
2019-02-26T05:17:19.049Z,52.33
2019-02-26T05:19:48.404Z,54.10
2019-02-26T05:22:13.993Z,51.45
2019-02-26T05:24:42.426Z,52.70
2019-02-26T05:27:16.588Z,55.23
2019-02-26T05:29:46.589Z,56.45
2019-02-26T05:32:11.680Z,56.63
2019-02-26T05:34:40.048Z,55.60
2019-02-26T05:37:08.179Z,55.67
2019-02-26T05:39:34.321Z,53.45
2019-02-26T05:42:01.317Z,54.83
2019-02-26T05:44:28.865Z,54.88
2019-02-26T05:46:56.802Z,53.73
2019-02-26T05:49:23.240Z,54.35
2019-02-26T05:51:49.533Z,51.73
2019-02-26T05:54:18.592Z,55.80
2019-02-26T05:56:46.136Z,51.53
2019-02-26T05:59:13.293Z,52.80
2019-02-26T06:01:40.210Z,51.18
2019-02-26T06:04:07.741Z,51.90
2019-02-26T06:06:34.856Z,52.80
2019-02-26T06:09:02.901Z,52.70
2019-02-26T06:11:33.183Z,51.77
2019-02-26T06:14:01.326Z,51.95
2019-02-26T06:16:27.119Z,51.20
2019-02-26T06:18:54.545Z,53.38
2019-02-26T06:21:23.393Z,47.90
2019-02-26T06:23:50.660Z,50.60
2019-02-26T06:26:17.852Z,51.88
2019-02-26T06:28:50.319Z,53.00
2019-02-26T06:31:17.470Z,53.55
2019-02-26T06:33:47.180Z,51.98
2019-02-26T06:36:12.456Z,53.20
2019-02-26T06:38:38.850Z,52.53
2019-02-26T06:41:05.202Z,32.35
2019-02-26T06:43:35.478Z,55.00
2019-02-26T06:46:00.175Z,53.02
2019-02-26T06:48:29.629Z,54.10
2019-02-26T06:50:57.432Z,47.95
2019-02-26T06:53:23.812Z,46.05
2019-02-26T06:55:50.099Z,49.73
2019-02-26T06:58:23.739Z,50.55
2019-02-26T07:00:53.329Z,54.10
2019-02-26T07:03:18.244Z,49.45
2019-02-26T07:05:46.644Z,51.95
2019-02-26T07:08:12.922Z,49.67
2019-02-26T07:10:39.201Z,49.42
2019-02-26T07:13:09.306Z,51.40
2019-02-26T07:15:34.029Z,48.65
2019-02-26T07:18:04.356Z,49.03
2019-02-26T07:20:33.983Z,48.05
2019-02-26T07:22:56.682Z,50.70
2019-02-26T07:25:23.236Z,50.73
2019-02-26T07:27:51.222Z,56.18
2019-02-26T07:30:17.588Z,52.88
2019-02-26T07:32:47.654Z,47.38
2019-02-26T07:35:14.389Z,47.23
2019-02-26T07:37:40.814Z,56.85
2019-02-26T07:40:11.129Z,48.52
2019-02-26T07:42:39.715Z,48.85
2019-02-26T07:45:14.614Z,49.20
2019-02-26T07:47:36.488Z,55.20
2019-02-26T07:50:12.264Z,57.00
2019-02-26T07:52:38.332Z,51.85
2019-02-26T07:55:09.159Z,56.77
2019-02-26T07:57:34.839Z,56.25
2019-02-26T08:00:01.132Z,57.50
2019-02-26T08:02:28.407Z,55.55
2019-02-26T08:04:55.864Z,57.93
2019-02-26T08:07:23.915Z,56.63
2019-02-26T08:09:50.181Z,58.52
2019-02-26T08:12:16.657Z,53.58
2019-02-26T08:14:45.151Z,59.03
2019-02-26T08:17:11.080Z,55.05
2019-02-26T08:19:39.817Z,53.50
2019-02-26T08:22:06.150Z,56.55
2019-02-26T08:24:35.158Z,59.85
2019-02-26T08:27:03.403Z,57.93
2019-02-26T08:29:31.211Z,61.48
2019-02-26T08:31:59.613Z,61.77
2019-02-26T08:34:26.722Z,63.00
2019-02-26T08:36:53.126Z,56.88
2019-02-26T08:39:19.558Z,56.95
2019-02-26T08:42:03.656Z,57.13
2019-02-26T08:44:30.278Z,59.18
2019-02-26T08:46:57.379Z,58.50
2019-02-26T08:49:23.750Z,61.77
2019-02-26T08:51:50.026Z,62.13
2019-02-26T08:54:20.926Z,56.37
2019-02-26T08:56:44.548Z,54.50
2019-02-26T08:59:10.816Z,61.35
2019-02-26T09:01:37.128Z,60.90
2019-02-26T09:04:03.374Z,61.00
2019-02-26T09:06:29.642Z,59.93
2019-02-26T09:08:57.950Z,55.95
2019-02-26T09:11:26.217Z,57.78
2019-02-26T09:13:56.326Z,56.65
2019-02-26T09:16:23.371Z,59.63
2019-02-26T09:18:50.223Z,60.05
2019-02-26T09:21:18.086Z,59.00
2019-02-26T09:23:47.402Z,59.88
2019-02-26T09:26:12.843Z,56.70
2019-02-26T09:28:39.185Z,56.23
2019-02-26T09:31:09.630Z,57.95
2019-02-26T09:33:40.360Z,54.53
2019-02-26T09:36:10.509Z,56.73
2019-02-26T09:38:34.743Z,54.93
2019-02-26T09:41:01.236Z,53.48
2019-02-26T09:43:27.477Z,53.17
2019-02-26T09:45:53.762Z,55.70
2019-02-26T09:48:21.996Z,50.67
2019-02-26T09:50:48.720Z,55.12
2019-02-26T09:53:15.052Z,51.15
2019-02-26T09:55:41.441Z,48.80
2019-02-26T09:58:07.938Z,50.90
2019-02-26T10:00:34.376Z,51.65
2019-02-26T10:03:00.675Z,49.70
2019-02-26T10:05:27.094Z,52.03
2019-02-26T10:07:54.895Z,52.10
2019-02-26T10:10:22.062Z,47.25
2019-02-26T10:12:48.459Z,51.65
2019-02-26T10:15:15.723Z,52.60
2019-02-26T10:17:42.743Z,49.18
2019-02-26T10:20:20.861Z,48.48
2019-02-26T10:22:47.419Z,50.88
2019-02-26T10:25:15.214Z,48.95
2019-02-26T10:27:43.122Z,48.28
2019-02-26T10:30:16.268Z,47.73
2019-02-26T10:32:44.086Z,45.08
2019-02-26T10:35:16.560Z,44.25
2019-02-26T10:38:02.137Z,40.73
2019-02-26T10:40:34.582Z,39.45
2019-02-26T10:42:55.547Z,42.70
2019-02-26T10:45:28.664Z,45.35
2019-02-26T10:47:56.706Z,46.92
2019-02-26T10:50:25.596Z,41.95
2019-02-26T10:52:52.784Z,40.30
2019-02-26T10:55:21.864Z,45.98
2019-02-26T10:57:47.829Z,46.48
2019-02-26T11:00:30.265Z,43.50
2019-02-26T11:02:54.973Z,47.10
2019-02-26T11:05:26.258Z,46.65
2019-02-26T11:07:49.587Z,46.33
2019-02-26T11:10:18.129Z,45.25
2019-02-26T11:12:45.706Z,45.50
2019-02-26T11:15:13.742Z,47.08
2019-02-26T11:17:40.241Z,39.98
2019-02-26T11:20:11.804Z,39.78
2019-02-26T11:22:42.341Z,39.48
2019-02-26T11:25:13.340Z,39.58
2019-02-26T11:27:41.793Z,36.05
2019-02-26T11:30:21.107Z,39.60
2019-02-26T11:32:47.615Z,39.78
2019-02-26T11:35:16.774Z,38.25
2019-02-26T11:37:44.889Z,39.50
2019-02-26T11:40:13.175Z,37.08
2019-02-26T11:42:40.426Z,34.03
2019-02-26T11:45:19.381Z,35.85
2019-02-26T11:47:45.731Z,35.98
2019-02-26T11:50:16.773Z,37.15
2019-02-26T11:52:43.064Z,32.23
2019-02-26T11:55:11.298Z,35.85
2019-02-26T11:57:39.857Z,30.95
2019-02-26T12:00:25.457Z,31.82
2019-02-26T12:02:49.116Z,32.75
2019-02-26T12:05:16.007Z,30.43
2019-02-26T12:07:42.296Z,31.27
2019-02-26T12:10:14.723Z,32.58
2019-02-26T12:12:41.127Z,31.33
2019-02-26T12:15:12.357Z,31.35
2019-02-26T12:17:39.185Z,30.45
2019-02-26T12:20:08.815Z,28.47
2019-02-26T12:22:35.175Z,32.05
2019-02-26T12:25:04.860Z,32.93
2019-02-26T12:27:29.576Z,32.70
2019-02-26T12:29:55.896Z,30.40
2019-02-26T12:32:24.348Z,28.23
2019-02-26T12:34:51.440Z,31.05
2019-02-26T12:37:17.875Z,27.90
2019-02-26T12:39:46.499Z,29.55
2019-02-26T12:42:13.958Z,29.15
2019-02-26T12:44:44.747Z,30.05
2019-02-26T12:47:08.810Z,28.73
2019-02-26T12:49:36.504Z,25.70
2019-02-26T12:52:03.506Z,28.50
2019-02-26T12:54:33.282Z,26.55
2019-02-26T12:57:00.408Z,27.13
2019-02-26T12:59:26.120Z,25.80
2019-02-26T13:01:52.395Z,27.20
2019-02-26T13:04:21.545Z,25.30
2019-02-26T13:06:48.439Z,25.08
2019-02-26T13:09:14.938Z,29.10
2019-02-26T13:12:00.206Z,26.68
2019-02-26T13:14:09.434Z,30.25
2019-02-26T13:16:35.675Z,29.72
2019-02-26T13:19:04.579Z,33.83
2019-02-26T13:21:30.370Z,32.20
2019-02-26T13:24:03.606Z,30.37
2019-02-26T13:26:24.764Z,31.52
2019-02-26T13:28:53.037Z,29.95
2019-02-26T13:31:22.407Z,30.30
2019-02-26T13:33:47.312Z,30.00
2019-02-26T13:36:16.520Z,29.95
2019-02-26T13:38:45.937Z,28.57
2019-02-26T13:41:28.897Z,25.48
2019-02-26T13:43:39.378Z,22.85
2019-02-26T13:46:05.730Z,26.85
2019-02-26T13:48:32.165Z,26.07
2019-02-26T13:50:58.440Z,26.45
2019-02-26T13:53:24.897Z,27.00
2019-02-26T13:55:51.241Z,28.80
2019-02-26T13:58:17.673Z,31.77
2019-02-26T14:00:43.985Z,33.25
2019-02-26T14:03:10.519Z,32.20
2019-02-26T14:05:39.389Z,30.23
2019-02-26T14:08:05.685Z,32.40
2019-02-26T14:10:31.900Z,34.05
2019-02-26T14:12:58.196Z,34.27
2019-02-26T14:15:26.898Z,32.40
2019-02-26T14:17:55.072Z,30.77
2019-02-26T14:20:21.519Z,28.85
2019-02-26T14:22:49.884Z,30.08
2019-02-26T14:25:16.206Z,27.87
2019-02-26T14:27:42.524Z,26.42
2019-02-26T14:30:13.684Z,25.65
2019-02-26T14:32:42.356Z,24.40
2019-02-26T14:35:10.859Z,23.67
2019-02-26T14:37:37.134Z,25.88
2019-02-26T14:40:07.115Z,25.60
2019-02-26T14:42:33.715Z,25.02
2019-02-26T14:45:00.100Z,23.55
2019-02-26T14:47:26.502Z,25.65
2019-02-26T14:49:52.809Z,25.15
2019-02-26T14:52:19.102Z,26.12
2019-02-26T14:54:45.338Z,25.97
2019-02-26T14:57:11.930Z,24.67
2019-02-26T14:59:38.210Z,26.52
2019-02-26T15:02:04.473Z,27.35
2019-02-26T15:04:30.762Z,27.30
2019-02-26T15:06:59.908Z,29.77
2019-02-26T15:09:26.154Z,32.28
2019-02-26T15:11:55.688Z,30.65
2019-02-26T15:14:22.088Z,32.05
2019-02-26T15:16:48.410Z,32.65
2019-02-26T15:19:14.752Z,33.30
2019-02-26T15:21:41.101Z,33.30
2019-02-26T15:24:07.534Z,30.27
2019-02-26T15:26:33.870Z,31.07
2019-02-26T15:29:00.120Z,30.30
2019-02-26T15:31:26.373Z,28.30
2019-02-26T15:33:52.931Z,29.30
2019-02-26T15:36:19.218Z,30.97
2019-02-26T15:38:45.847Z,33.98
2019-02-26T15:41:12.082Z,32.58
2019-02-26T15:43:38.340Z,33.10
2019-02-26T15:46:08.435Z,33.63
2019-02-26T15:48:37.062Z,32.85
2019-02-26T15:51:03.333Z,33.48
2019-02-26T15:53:29.613Z,33.67
2019-02-26T15:55:59.210Z,33.53
2019-02-26T15:58:24.159Z,32.95
2019-02-26T16:00:50.555Z,35.30
2019-02-26T16:03:16.860Z,36.70
2019-02-26T16:05:45.030Z,39.08
2019-02-26T16:08:14.011Z,37.55
2019-02-26T16:10:40.309Z,35.50
2019-02-26T16:13:06.700Z,38.13
2019-02-26T16:15:34.225Z,38.55
2019-02-26T16:18:00.667Z,38.00
2019-02-26T16:20:27.199Z,39.35
2019-02-26T16:22:53.441Z,35.45
2019-02-26T16:25:19.740Z,37.65
2019-02-26T16:27:46.012Z,39.25
2019-02-26T16:30:27.002Z,39.33
2019-02-26T16:32:53.496Z,37.30
2019-02-26T16:35:25.579Z,36.58
2019-02-26T16:37:52.133Z,37.38
2019-02-26T16:40:18.379Z,39.73
2019-02-26T16:42:45.647Z,38.33
2019-02-26T16:45:14.156Z,37.40
2019-02-26T16:47:40.445Z,37.63
2019-02-26T16:50:15.072Z,38.70
2019-02-26T16:52:41.945Z,37.23
2019-02-26T16:55:13.651Z,39.80
2019-02-26T16:57:38.274Z,38.83
2019-02-26T17:00:16.362Z,38.67
2019-02-26T17:02:42.793Z,35.88
2019-02-26T17:05:09.682Z,38.23
2019-02-26T17:07:37.484Z,40.63
2019-02-26T17:10:22.436Z,38.80
2019-02-26T17:12:50.709Z,38.25
2019-02-26T17:15:25.538Z,39.15
2019-02-26T17:17:50.470Z,37.35
2019-02-26T17:20:16.730Z,35.28
2019-02-26T17:22:44.872Z,37.95
2019-02-26T17:25:11.330Z,35.65
2019-02-26T17:27:38.950Z,39.45
2019-02-26T17:30:09.190Z,34.95
2019-02-26T17:32:35.721Z,36.15
2019-02-26T17:35:05.621Z,38.25
2019-02-26T17:37:31.940Z,40.23
2019-02-26T17:40:11.550Z,39.30
2019-02-26T17:42:37.792Z,36.77
2019-02-26T17:45:07.638Z,35.75
2019-02-26T17:47:34.050Z,36.70
2019-02-26T17:50:00.388Z,37.70
2019-02-26T17:52:26.882Z,38.70
2019-02-26T17:54:53.189Z,36.23
2019-02-26T17:57:19.470Z,37.17
2019-02-26T17:59:45.949Z,36.88
2019-02-26T18:02:12.212Z,38.45
2019-02-26T18:04:40.286Z,33.83
2019-02-26T18:07:06.606Z,36.23
2019-02-26T18:09:34.630Z,37.88
2019-02-26T18:12:02.291Z,35.40
2019-02-26T18:14:29.026Z,38.45
2019-02-26T18:16:56.802Z,37.35
2019-02-26T18:19:23.125Z,37.83
2019-02-26T18:21:51.655Z,37.60
2019-02-26T18:24:18.002Z,38.63
2019-02-26T18:26:44.376Z,38.23
2019-02-26T18:29:13.992Z,39.80
2019-02-26T18:31:40.332Z,37.25
2019-02-26T18:34:06.649Z,37.50
2019-02-26T18:36:33.135Z,34.48
2019-02-26T18:38:59.379Z,36.98
2019-02-26T18:41:25.810Z,36.00
2019-02-26T18:43:52.099Z,36.88
2019-02-26T18:46:18.425Z,40.50
2019-02-26T18:48:48.525Z,38.75
2019-02-26T18:51:13.040Z,38.98
2019-02-26T18:53:39.700Z,37.58
2019-02-26T18:56:06.542Z,40.05
2019-02-26T18:58:32.873Z,40.75
2019-02-26T19:00:59.220Z,41.60
2019-02-26T19:03:25.502Z,40.78
2019-02-26T19:05:54.950Z,42.17
2019-02-26T19:08:23.511Z,42.80
2019-02-26T19:10:50.860Z,42.53
2019-02-26T19:13:18.646Z,40.88
2019-02-26T19:15:47.647Z,37.73
2019-02-26T19:18:13.024Z,42.45
2019-02-26T19:20:39.391Z,42.45
2019-02-26T19:23:05.634Z,38.10
2019-02-26T19:25:31.867Z,40.78
2019-02-26T19:27:58.296Z,39.92
2019-02-26T19:30:24.684Z,36.50
2019-02-26T19:32:50.993Z,37.78
2019-02-26T19:35:17.375Z,41.88
2019-02-26T19:37:44.983Z,40.15
2019-02-26T19:40:17.584Z,40.98
2019-02-26T19:42:43.895Z,41.10
2019-02-26T19:45:11.802Z,42.23
2019-02-26T19:47:38.286Z,41.53
2019-02-26T19:50:11.642Z,39.03
2019-02-26T19:52:36.138Z,38.15
2019-02-26T19:55:06.041Z,40.92
2019-02-26T19:57:32.324Z,40.85
2019-02-26T20:00:00.679Z,42.65
2019-02-26T20:02:26.707Z,41.05
2019-02-26T20:04:53.035Z,41.60
2019-02-26T20:07:19.310Z,42.55
2019-02-26T20:09:45.564Z,43.08
2019-02-26T20:12:14.524Z,40.20
2019-02-26T20:14:42.683Z,42.08
2019-02-26T20:17:14.704Z,38.95
2019-02-26T20:19:37.197Z,44.03
2019-02-26T20:22:03.516Z,43.90
2019-02-26T20:24:29.779Z,43.48
2019-02-26T20:26:56.574Z,39.20
2019-02-26T20:29:23.552Z,38.65
2019-02-26T20:31:55.758Z,40.30
2019-02-26T20:34:20.649Z,40.28
2019-02-26T20:36:48.811Z,39.73
2019-02-26T20:39:15.473Z,39.50
2019-02-26T20:41:41.732Z,39.92
2019-02-26T20:44:10.219Z,38.40
2019-02-26T20:46:36.412Z,41.70
2019-02-26T20:49:02.674Z,38.45
2019-02-26T20:51:28.936Z,40.73
2019-02-26T20:53:55.540Z,40.48
2019-02-26T20:56:21.860Z,41.28
2019-02-26T20:58:48.227Z,40.92
2019-02-26T21:01:14.529Z,42.35
2019-02-26T21:03:40.786Z,39.78
2019-02-26T21:06:07.044Z,42.40
2019-02-26T21:08:33.363Z,40.12
2019-02-26T21:10:59.638Z,38.53
2019-02-26T21:13:25.904Z,40.67
2019-02-26T21:15:52.191Z,40.15
2019-02-26T21:18:19.406Z,41.02
2019-02-26T21:20:45.655Z,41.95
2019-02-26T21:23:11.974Z,39.33
2019-02-26T21:25:43.841Z,40.98
2019-02-26T21:28:09.026Z,41.90
2019-02-26T21:30:35.369Z,40.88
2019-02-26T21:33:01.708Z,42.10
2019-02-26T21:35:28.395Z,38.67
2019-02-26T21:37:54.743Z,38.40
2019-02-26T21:40:21.158Z,41.15
2019-02-26T21:42:47.430Z,42.30
2019-02-26T21:45:16.471Z,40.70
2019-02-26T21:47:42.950Z,38.38
2019-02-26T21:50:14.352Z,40.40
2019-02-26T21:52:42.090Z,38.33
2019-02-26T21:55:10.503Z,37.58
2019-02-26T21:57:36.848Z,38.25
2019-02-26T22:00:10.170Z,38.65
2019-02-26T22:02:36.431Z,39.58
2019-02-26T22:05:05.266Z,37.98
2019-02-26T22:07:32.252Z,38.80
2019-02-26T22:09:58.555Z,41.20
2019-02-26T22:12:24.849Z,38.90
2019-02-26T22:14:51.244Z,39.10
2019-02-26T22:17:17.561Z,41.15
2019-02-26T22:19:44.095Z,40.85
2019-02-26T22:22:10.365Z,41.65
2019-02-26T22:24:37.798Z,41.37
2019-02-26T22:27:04.734Z,39.10
2019-02-26T22:29:31.129Z,38.20
2019-02-26T22:31:59.714Z,40.48
2019-02-26T22:34:25.875Z,36.93
2019-02-26T22:36:52.195Z,39.90
2019-02-26T22:39:22.264Z,41.55
2019-02-26T22:41:46.681Z,38.13
2019-02-26T22:44:13.068Z,40.23
2019-02-26T22:46:39.336Z,40.55
2019-02-26T22:49:05.722Z,40.48
2019-02-26T22:51:32.000Z,39.63
2019-02-26T22:53:58.270Z,39.45
2019-02-26T22:56:24.778Z,40.52
2019-02-26T22:58:52.735Z,37.30
2019-02-26T23:01:30.570Z,39.25
2019-02-26T23:03:52.438Z,41.70
2019-02-26T23:06:18.807Z,40.50
2019-02-26T23:08:45.392Z,38.75
2019-02-26T23:11:12.954Z,37.95
2019-02-26T23:13:39.353Z,39.65
2019-02-26T23:16:05.612Z,39.10
2019-02-26T23:18:32.199Z,38.48
2019-02-26T23:20:58.465Z,38.65
2019-02-26T23:23:24.897Z,38.35
2019-02-26T23:25:53.051Z,36.98
2019-02-26T23:28:21.702Z,39.23
2019-02-26T23:30:47.671Z,39.18
2019-02-26T23:33:15.263Z,41.68
2019-02-26T23:35:42.011Z,37.63
2019-02-26T23:38:09.164Z,36.00
2019-02-26T23:40:35.459Z,37.48
2019-02-26T23:43:01.843Z,39.15
2019-02-26T23:45:28.227Z,35.75
2019-02-26T23:47:54.602Z,40.15
2019-02-26T23:50:20.911Z,39.05
2019-02-26T23:52:47.207Z,39.80
2019-02-26T23:55:14.026Z,38.05
2019-02-26T23:57:40.388Z,40.45
